Wheeler, Mississippi
Current Conditions -  °F | °C
As of 12:53 AM on Wednesday 26 Nov 2014 (Local Time) from KTUP Reporting Station
Clear Clear  
Wind Chill: 31°   Ceiling: Unl
Heat Index: 31°   Visibility: 10mi
Dew Point: 26°   Wind: 0mph
Humidity: 82%   Direction: NA
Pressure: 30.16"   Gusts: NA
Location:  34.58°N, 88.61°W
Report Text: KTUP 260653Z AUTO 00000KT 10SM CLR M01/M03 A3016 RMK AO2 SLP213 T10061033
Loading
Personal Weather Stations






























Interactive Weather Map New forecast layout! Learn more

10-Day Weather Forecast

Advertisements
Track Severe Weather on mobile